Time;durP1;ratioP1;P1;durP2;ratioP2;P2;SDS_P1;SDS_P2;PMS_P1;PMS_P2;Temp;Humidity;BMP_temperature;BMP_pressure;BME280_temperature;BME280_humidity;BME280_pressure;Samples;Min_cycle;Max_cycle;Signal;HPM_P1;HPM_P2
2024/02/08 00:02:16;;;;;;;12.77;9.67;;;;;;;;;;5035410;28;20645;-52
2024/02/08 00:04:43;;;;;;;11.20;10.00;;;;;;;;;;5032195;28;20232;-52
2024/02/08 00:07:09;;;;;;;12.63;9.90;;;;;;;;;;5032796;28;20197;-52
2024/02/08 00:09:34;;;;;;;12.20;9.90;;;;;;;;;;5032922;28;20555;-53
2024/02/08 00:12:02;;;;;;;11.07;9.60;;;;;;;;;;5033860;28;20171;-54
2024/02/08 00:14:28;;;;;;;10.77;9.27;;;;;;;;;;5033139;28;20242;-55
2024/02/08 00:16:54;;;;;;;12.07;9.20;;;;;;;;;;5041587;28;20188;-55
2024/02/08 00:19:20;;;;;;;12.33;9.60;;;;;;;;;;5033881;28;20750;-54
2024/02/08 00:21:46;;;;;;;15.73;10.20;;;;;;;;;;5030008;28;20235;-62
2024/02/08 00:24:13;;;;;;;11.57;9.47;;;;;;;;;;5032186;28;20284;-62
2024/02/08 00:26:41;;;;;;;12.33;10.20;;;;;;;;;;5032355;28;20229;-60
2024/02/08 00:29:07;;;;;;;12.67;9.70;;;;;;;;;;5032441;28;20174;-62
2024/02/08 00:31:33;;;;;;;11.83;9.47;;;;;;;;;;5031818;28;20184;-62
2024/02/08 00:33:59;;;;;;;11.67;9.00;;;;;;;;;;5032457;28;20197;-60
2024/02/08 00:36:25;;;;;;;12.10;9.60;;;;;;;;;;5031815;28;20252;-61
2024/02/08 00:38:51;;;;;;;11.43;9.23;;;;;;;;;;5028017;28;20600;-57
2024/02/08 00:41:23;;;;;;;11.23;9.80;;;;;;;;;;5029268;28;20259;-59
2024/02/08 00:43:50;;;;;;;10.70;9.50;;;;;;;;;;5024726;28;20670;-60
2024/02/08 00:46:16;;;;;;;11.23;9.37;;;;;;;;;;5023789;28;20654;-58
2024/02/08 00:48:43;;;;;;;11.53;8.90;;;;;;;;;;5028994;28;20629;-57
2024/02/08 00:51:09;;;;;;;11.33;9.67;;;;;;;;;;5034627;28;20621;-60
2024/02/08 00:53:36;;;;;;;10.67;9.00;;;;;;;;;;5029353;28;20236;-59
2024/02/08 00:56:02;;;;;;;12.03;9.20;;;;;;;;;;5029184;28;20192;-62
2024/02/08 00:58:28;;;;;;;12.73;10.80;;;;;;;;;;5031061;28;20189;-59
2024/02/08 01:00:54;;;;;;;12.23;9.23;;;;;;;;;;5028504;28;20286;-59
2024/02/08 01:03:24;;;;;;;11.30;10.07;;;;;;;;;;5028711;28;20602;-60
2024/02/08 01:05:52;;;;;;;13.57;10.17;;;;;;;;;;5030346;28;20726;-60
2024/02/08 01:08:18;;;;;;;12.30;9.60;;;;;;;;;;5028783;28;20182;-60
2024/02/08 01:10:44;;;;;;;13.87;9.80;;;;;;;;;;5026258;28;20171;-59
2024/02/08 01:13:11;;;;;;;12.57;9.67;;;;;;;;;;5029134;28;20201;-60
2024/02/08 01:15:37;;;;;;;14.03;9.83;;;;;;;;;;5029371;28;20174;-60
2024/02/08 01:18:03;;;;;;;10.17;8.57;;;;;;;;;;5022436;28;20706;-61
2024/02/08 01:20:31;;;;;;;13.57;9.23;;;;;;;;;;5029382;28;20213;-60
2024/02/08 01:22:59;;;;;;;11.77;9.43;;;;;;;;;;5029577;28;20495;-60
2024/02/08 01:25:25;;;;;;;12.30;9.47;;;;;;;;;;5030252;28;20194;-59
2024/02/08 01:27:51;;;;;;;10.17;9.10;;;;;;;;;;5035544;28;20200;-59
2024/02/08 01:30:17;;;;;;;12.90;10.40;;;;;;;;;;5027682;28;20550;-58
2024/02/08 01:32:43;;;;;;;12.80;9.23;;;;;;;;;;5029597;28;20217;-53
2024/02/08 01:35:10;;;;;;;11.80;9.53;;;;;;;;;;5028486;28;20229;-52
2024/02/08 01:37:38;;;;;;;12.07;9.77;;;;;;;;;;5028382;28;20214;-52
2024/02/08 01:40:12;;;;;;;12.70;9.57;;;;;;;;;;5025741;28;20177;-54
2024/02/08 01:42:38;;;;;;;10.77;9.30;;;;;;;;;;5029485;28;20220;-52
2024/02/08 01:45:31;;;;;;;13.30;10.23;;;;;;;;;;5028855;28;20333;-53
2024/02/08 01:48:05;;;;;;;11.30;9.10;;;;;;;;;;5026041;28;20300;-52
2024/02/08 01:50:35;;;;;;;11.97;9.30;;;;;;;;;;5020273;28;20197;-52
2024/02/08 01:53:01;;;;;;;12.43;9.57;;;;;;;;;;5026031;28;20178;-54
2024/02/08 01:55:33;;;;;;;11.87;9.20;;;;;;;;;;5021503;28;20312;-53
2024/02/08 01:58:07;;;;;;;10.17;8.90;;;;;;;;;;5026580;28;20212;-54
2024/02/08 02:00:36;;;;;;;11.77;9.27;;;;;;;;;;5031557;28;20174;-52
2024/02/08 02:03:03;;;;;;;14.43;10.10;;;;;;;;;;5028760;28;20624;-53
2024/02/08 02:05:29;;;;;;;11.57;9.40;;;;;;;;;;5027967;28;20300;-52
2024/02/08 02:07:55;;;;;;;14.30;9.80;;;;;;;;;;5028840;28;20192;-52
2024/02/08 02:10:21;;;;;;;13.33;10.10;;;;;;;;;;5035323;28;20217;-55
2024/02/08 02:12:48;;;;;;;10.33;8.90;;;;;;;;;;5028065;28;20228;-54
2024/02/08 02:15:15;;;;;;;11.50;9.20;;;;;;;;;;5026626;28;20651;-55
2024/02/08 02:17:44;;;;;;;10.00;9.00;;;;;;;;;;5024118;28;20310;-54
2024/02/08 02:20:18;;;;;;;12.03;8.90;;;;;;;;;;5028089;28;20186;-54
2024/02/08 02:22:44;;;;;;;11.23;9.20;;;;;;;;;;5026789;28;20594;-52
2024/02/08 02:25:11;;;;;;;14.80;10.43;;;;;;;;;;5018862;28;20202;-53
2024/02/08 02:27:40;;;;;;;12.57;9.47;;;;;;;;;;5014644;28;20594;-53
2024/02/08 02:30:07;;;;;;;10.60;9.13;;;;;;;;;;5024840;28;20770;-54
2024/02/08 02:32:37;;;;;;;13.97;9.60;;;;;;;;;;5027545;28;20182;-55
2024/02/08 02:35:04;;;;;;;13.07;9.17;;;;;;;;;;5027037;28;20281;-53
2024/02/08 02:37:33;;;;;;;12.07;9.37;;;;;;;;;;5025485;28;20186;-52
2024/02/08 02:39:59;;;;;;;11.43;9.03;;;;;;;;;;5021940;28;20650;-53
2024/02/08 02:42:27;;;;;;;11.60;9.33;;;;;;;;;;5024333;28;20216;-52
2024/02/08 02:44:53;;;;;;;11.70;9.07;;;;;;;;;;5021034;28;20251;-50
2024/02/08 02:47:25;;;;;;;12.90;9.57;;;;;;;;;;5020967;28;20606;-51
2024/02/08 02:49:55;;;;;;;14.50;8.90;;;;;;;;;;5023245;28;20665;-53
2024/02/08 02:52:21;;;;;;;12.80;10.10;;;;;;;;;;5022240;28;20170;-51
2024/02/08 02:54:48;;;;;;;13.13;9.87;;;;;;;;;;5021596;28;20190;-50
2024/02/08 02:57:18;;;;;;;12.27;9.53;;;;;;;;;;5018734;28;20263;-54
2024/02/08 02:59:44;;;;;;;11.70;9.00;;;;;;;;;;5022981;28;20177;-53
2024/02/08 03:02:10;;;;;;;10.80;8.93;;;;;;;;;;5023304;28;20189;-53
2024/02/08 03:04:36;;;;;;;11.07;9.13;;;;;;;;;;5021981;28;20642;-55
2024/02/08 03:07:02;;;;;;;11.93;9.33;;;;;;;;;;5020706;28;20622;-53
2024/02/08 03:09:30;;;;;;;11.67;10.07;;;;;;;;;;5024148;28;20174;-51
2024/02/08 03:11:59;;;;;;;12.87;9.60;;;;;;;;;;5020436;28;20179;-53
2024/02/08 03:14:26;;;;;;;11.73;9.10;;;;;;;;;;5022715;28;20181;-58
2024/02/08 03:16:53;;;;;;;12.07;8.77;;;;;;;;;;5023475;28;20688;-54
2024/02/08 03:19:20;;;;;;;11.20;9.50;;;;;;;;;;5025282;28;20233;-53
2024/02/08 03:21:46;;;;;;;11.80;9.93;;;;;;;;;;5025426;28;20181;-53
2024/02/08 03:24:13;;;;;;;13.97;10.37;;;;;;;;;;5020336;28;20185;-52
2024/02/08 03:26:49;;;;;;;15.60;9.90;;;;;;;;;;5012330;28;20220;-50
2024/02/08 03:29:16;;;;;;;13.37;9.00;;;;;;;;;;5020712;28;20208;-51
2024/02/08 03:31:46;;;;;;;12.30;9.17;;;;;;;;;;5014611;28;20212;-51
2024/02/08 03:34:16;;;;;;;10.80;9.27;;;;;;;;;;5011999;28;20187;-52
2024/02/08 03:36:44;;;;;;;12.10;9.57;;;;;;;;;;5021061;28;20181;-52
2024/02/08 03:39:20;;;;;;;14.70;10.07;;;;;;;;;;5020864;28;20174;-51
2024/02/08 03:41:46;;;;;;;11.90;9.27;;;;;;;;;;5026492;28;20170;-51
2024/02/08 03:44:12;;;;;;;12.37;9.37;;;;;;;;;;5021902;28;20236;-51
2024/02/08 03:46:38;;;;;;;10.97;9.13;;;;;;;;;;5021505;28;20186;-51
2024/02/08 03:49:08;;;;;;;12.07;8.40;;;;;;;;;;5027841;28;20506;-51
2024/02/08 03:51:37;;;;;;;14.87;9.57;;;;;;;;;;5028205;28;20182;-60
2024/02/08 03:54:03;;;;;;;14.53;8.87;;;;;;;;;;5028040;28;20574;-60
2024/02/08 03:56:36;;;;;;;15.37;9.73;;;;;;;;;;5027541;28;20202;-59
2024/02/08 03:59:07;;;;;;;11.53;8.30;;;;;;;;;;5027258;28;20273;-58
2024/02/08 04:01:33;;;;;;;12.00;9.37;;;;;;;;;;5027449;28;20158;-60
2024/02/08 04:04:11;;;;;;;13.10;9.27;;;;;;;;;;5027510;28;20174;-60
2024/02/08 04:06:49;;;;;;;12.13;9.17;;;;;;;;;;5028256;28;20571;-60
2024/02/08 04:09:33;;;;;;;11.40;9.17;;;;;;;;;;5027240;28;20178;-60
2024/02/08 04:53:45;;;;;;;12.67;8.97;;;;;;;;;;5024151;28;20188;-59
2024/02/08 04:56:12;;;;;;;10.83;9.00;;;;;;;;;;5020018;28;20193;-60
2024/02/08 04:58:45;;;;;;;11.17;9.40;;;;;;;;;;5031502;28;20645;-60
2024/02/08 05:01:11;;;;;;;9.57;8.57;;;;;;;;;;5029506;28;20185;-60
2024/02/08 05:03:44;;;;;;;13.27;9.00;;;;;;;;;;5030641;28;20525;-51
2024/02/08 05:06:11;;;;;;;12.87;9.70;;;;;;;;;;5030397;28;20213;-51
2024/02/08 05:08:38;;;;;;;12.83;9.47;;;;;;;;;;5031060;28;20181;-52
2024/02/08 05:11:09;;;;;;;12.27;9.27;;;;;;;;;;5031278;28;20181;-52
2024/02/08 05:13:35;;;;;;;11.63;8.60;;;;;;;;;;5026642;28;20678;-51
2024/02/08 05:16:05;;;;;;;11.80;9.13;;;;;;;;;;5017161;28;20224;-51
2024/02/08 05:18:31;;;;;;;12.80;9.60;;;;;;;;;;5036664;28;20229;-51
2024/02/08 05:20:57;;;;;;;10.47;8.53;;;;;;;;;;5031672;28;20688;-53
2024/02/08 05:23:27;;;;;;;12.60;8.53;;;;;;;;;;5043171;28;20181;-51
2024/02/08 05:25:53;;;;;;;11.17;8.90;;;;;;;;;;5048059;28;20209;-51
2024/02/08 05:28:22;;;;;;;11.67;9.67;;;;;;;;;;5037591;28;20186;-50
2024/02/08 05:30:49;;;;;;;13.50;9.17;;;;;;;;;;5016100;28;20701;-51
2024/02/08 05:33:15;;;;;;;13.43;9.10;;;;;;;;;;5029766;28;20193;-50
2024/02/08 05:35:44;;;;;;;12.77;8.87;;;;;;;;;;5029915;28;20189;-52
2024/02/08 05:38:10;;;;;;;13.17;9.03;;;;;;;;;;5030142;28;20602;-51
2024/02/08 05:40:43;;;;;;;12.20;9.03;;;;;;;;;;5029331;28;20174;-50
2024/02/08 05:43:09;;;;;;;12.23;9.70;;;;;;;;;;5029892;28;20244;-51
2024/02/08 05:45:35;;;;;;;11.97;8.90;;;;;;;;;;5028764;28;20208;-51
2024/02/08 05:48:05;;;;;;;11.07;8.67;;;;;;;;;;5028569;28;20166;-52
2024/02/08 05:50:31;;;;;;;14.23;9.30;;;;;;;;;;5024892;28;20270;-51
2024/02/08 05:52:57;;;;;;;10.10;8.20;;;;;;;;;;5028223;28;20174;-54
2024/02/08 05:55:27;;;;;;;10.27;8.43;;;;;;;;;;5030242;28;20189;-52
2024/02/08 05:57:53;;;;;;;10.10;8.17;;;;;;;;;;5025120;28;20202;-52
2024/02/08 06:00:32;;;;;;;11.73;9.10;;;;;;;;;;5026904;28;20775;-55
2024/02/08 06:03:01;;;;;;;12.90;9.10;;;;;;;;;;5022578;28;20181;-55
2024/02/08 06:05:27;;;;;;;11.00;8.43;;;;;;;;;;5023603;28;20678;-55
2024/02/08 06:07:56;;;;;;;11.20;8.50;;;;;;;;;;5020114;28;20579;-55
2024/02/08 06:10:42;;;;;;;13.17;9.33;;;;;;;;;;5020314;28;20185;-56
2024/02/08 06:13:13;;;;;;;9.87;7.67;;;;;;;;;;5023608;28;20200;-55
2024/02/08 06:15:42;;;;;;;12.00;8.23;;;;;;;;;;5021417;28;20260;-55
2024/02/08 06:18:09;;;;;;;12.03;8.60;;;;;;;;;;5025711;28;20786;-55
2024/02/08 06:20:43;;;;;;;11.87;8.03;;;;;;;;;;5023286;28;20185;-57
2024/02/08 06:23:26;;;;;;;18.20;8.97;;;;;;;;;;5022793;28;20190;-57
2024/02/08 06:28:40;;;;;;;12.13;8.57;;;;;;;;;;5021575;28;20650;-57
2024/02/08 06:31:07;;;;;;;11.53;9.00;;;;;;;;;;5022106;28;20162;-57
2024/02/08 06:33:55;;;;;;;13.97;8.20;;;;;;;;;;5022433;28;20209;-57
2024/02/08 06:36:23;;;;;;;15.53;9.03;;;;;;;;;;5021311;28;20186;-57
2024/02/08 06:38:53;;;;;;;10.87;8.63;;;;;;;;;;5025317;28;20178;-57
2024/02/08 06:41:51;;;;;;;12.17;8.27;;;;;;;;;;5025153;28;20182;-59
2024/02/08 06:47:17;;;;;;;13.63;9.00;;;;;;;;;;5015054;28;20228;-54
2024/02/08 07:39:30;;;;;;;14.23;7.90;;;;;;;;;;5019121;28;20547;-55
2024/02/08 07:41:56;;;;;;;8.63;7.27;;;;;;;;;;5018463;28;20178;-57
2024/02/08 07:44:23;;;;;;;10.80;7.70;;;;;;;;;;5019610;28;20197;-55
2024/02/08 07:46:55;;;;;;;10.10;7.60;;;;;;;;;;5021716;28;20177;-56
2024/02/08 07:49:41;;;;;;;8.87;7.63;;;;;;;;;;5024692;28;20246;-55
2024/02/08 07:52:14;;;;;;;10.60;8.17;;;;;;;;;;5023044;28;20212;-55
2024/02/08 07:54:42;;;;;;;13.40;7.93;;;;;;;;;;5023405;28;20213;-55
2024/02/08 07:57:11;;;;;;;8.97;7.43;;;;;;;;;;5027946;28;20181;-56
2024/02/08 07:59:39;;;;;;;9.93;7.30;;;;;;;;;;5024516;28;20538;-55
2024/02/08 08:02:12;;;;;;;9.13;8.00;;;;;;;;;;5028147;28;20227;-55
2024/02/08 08:04:41;;;;;;;8.93;7.17;;;;;;;;;;5019418;28;20297;-55
2024/02/08 08:07:09;;;;;;;9.90;7.27;;;;;;;;;;5025581;28;20184;-57
2024/02/08 08:09:36;;;;;;;9.63;8.17;;;;;;;;;;5021142;28;20186;-55
2024/02/08 08:12:06;;;;;;;10.97;8.00;;;;;;;;;;5019105;28;20232;-55
2024/02/08 08:17:08;;;;;;;9.93;7.57;;;;;;;;;;5028150;28;20528;-55
2024/02/08 08:19:47;;;;;;;9.50;7.63;;;;;;;;;;5027224;28;20596;-55
2024/02/08 08:27:34;;;;;;;8.53;7.63;;;;;;;;;;5025732;28;20655;-55
2024/02/08 08:30:03;;;;;;;10.30;8.17;;;;;;;;;;5023015;28;20511;-55
2024/02/08 08:37:44;;;;;;;9.03;7.67;;;;;;;;;;5019492;28;20708;-53
2024/02/08 08:43:01;;;;;;;10.33;7.73;;;;;;;;;;5034880;28;20695;-52
2024/02/08 08:45:32;;;;;;;10.37;7.47;;;;;;;;;;5027429;28;20251;-51
2024/02/08 08:48:00;;;;;;;9.40;7.70;;;;;;;;;;5027867;28;20642;-54
2024/02/08 08:50:31;;;;;;;8.57;7.47;;;;;;;;;;5026854;28;20186;-55
2024/02/08 08:53:19;;;;;;;11.17;8.57;;;;;;;;;;5025124;28;20629;-54
2024/02/08 08:55:49;;;;;;;9.63;7.93;;;;;;;;;;5018956;28;20163;-54
2024/02/08 08:58:16;;;;;;;9.50;7.30;;;;;;;;;;5025031;28;20213;-56
2024/02/08 09:00:58;;;;;;;10.63;8.60;;;;;;;;;;5020524;28;20182;-54
2024/02/08 09:03:28;;;;;;;9.50;7.60;;;;;;;;;;5026154;28;20192;-54
2024/02/08 09:05:57;;;;;;;11.03;8.23;;;;;;;;;;5014948;28;20210;-55
2024/02/08 09:08:25;;;;;;;9.90;8.70;;;;;;;;;;5026960;28;20287;-55
2024/02/08 09:10:51;;;;;;;9.90;7.77;;;;;;;;;;5027356;28;20178;-54
2024/02/08 09:13:18;;;;;;;9.43;8.43;;;;;;;;;;5022008;28;20265;-55
2024/02/08 09:16:29;;;;;;;8.43;7.53;;;;;;;;;;5020787;28;20190;-54
2024/02/08 09:21:33;;;;;;;9.73;8.73;;;;;;;;;;5023994;28;20227;-55
2024/02/08 09:24:03;;;;;;;11.80;8.30;;;;;;;;;;5025502;28;20555;-55
2024/02/08 09:27:00;;;;;;;12.27;9.40;;;;;;;;;;5016238;28;20297;-55
2024/02/08 09:29:25;;;;;;;9.97;8.27;;;;;;;;;;5024927;28;20189;-54
2024/02/08 09:31:56;;;;;;;9.23;7.43;;;;;;;;;;5020124;28;20262;-55
2024/02/08 09:34:31;;;;;;;11.17;9.10;;;;;;;;;;5026714;28;20198;-55
2024/02/08 09:36:57;;;;;;;9.43;8.13;;;;;;;;;;5019457;28;20618;-55
2024/02/08 09:39:48;;;;;;;10.53;8.27;;;;;;;;;;5022671;28;20186;-54
2024/02/08 09:42:09;;;;;;;10.73;8.00;;;;;;;;;;5021213;28;20283;-54
2024/02/08 09:44:36;;;;;;;10.40;8.27;;;;;;;;;;5017238;28;20209;-54
2024/02/08 09:47:06;;;;;;;9.73;8.20;;;;;;;;;;5013136;28;20175;-54
2024/02/08 09:49:34;;;;;;;9.93;8.77;;;;;;;;;;5026527;28;20249;-54
2024/02/08 09:52:14;;;;;;;10.00;8.10;;;;;;;;;;5018102;28;20257;-55
2024/02/08 09:54:52;;;;;;;11.30;8.03;;;;;;;;;;5021488;28;20162;-55
2024/02/08 09:57:21;;;;;;;10.07;8.57;;;;;;;;;;5021582;28;20547;-54
2024/02/08 09:59:59;;;;;;;11.10;9.03;;;;;;;;;;5025615;28;20676;-55
2024/02/08 10:02:32;;;;;;;11.77;9.03;;;;;;;;;;5022797;28;20197;-54
2024/02/08 10:04:58;;;;;;;10.73;9.23;;;;;;;;;;5019237;28;20202;-55
2024/02/08 10:08:02;;;;;;;11.43;8.07;;;;;;;;;;5024976;28;20664;-54
2024/02/08 10:10:18;;;;;;;11.50;8.67;;;;;;;;;;5010964;28;20213;-53
2024/02/08 10:13:04;;;;;;;10.17;8.17;;;;;;;;;;5020472;28;20269;-53
2024/02/08 10:15:39;;;;;;;12.00;9.67;;;;;;;;;;5019159;28;20166;-53
2024/02/08 10:18:10;;;;;;;10.60;9.27;;;;;;;;;;5027199;28;20222;-53
2024/02/08 10:20:45;;;;;;;13.17;10.23;;;;;;;;;;5022227;28;20538;-54
2024/02/08 10:23:33;;;;;;;11.97;10.60;;;;;;;;;;5024901;28;20268;-53
2024/02/08 10:26:19;;;;;;;10.77;9.37;;;;;;;;;;5020055;28;20264;-53
2024/02/08 10:28:53;;;;;;;10.70;9.43;;;;;;;;;;5020402;28;20189;-53
2024/02/08 10:31:24;;;;;;;9.57;8.10;;;;;;;;;;5017270;28;20650;-53
2024/02/08 10:33:57;;;;;;;10.90;8.97;;;;;;;;;;5023074;28;20173;-53
2024/02/08 10:36:31;;;;;;;11.00;8.80;;;;;;;;;;5018762;28;20202;-53
2024/02/08 10:39:07;;;;;;;9.90;7.60;;;;;;;;;;5019444;28;20674;-53
2024/02/08 10:41:44;;;;;;;9.93;8.60;;;;;;;;;;5023960;28;20202;-53
2024/02/08 10:44:17;;;;;;;10.53;8.50;;;;;;;;;;5019574;28;20213;-54
2024/02/08 10:46:46;;;;;;;8.63;7.73;;;;;;;;;;5016187;28;20162;-54
2024/02/08 10:49:12;;;;;;;9.67;8.67;;;;;;;;;;5022275;28;20292;-54
2024/02/08 10:51:43;;;;;;;9.77;8.07;;;;;;;;;;5030175;28;20238;-54
2024/02/08 10:54:14;;;;;;;9.83;7.77;;;;;;;;;;5019794;28;20247;-54
2024/02/08 10:56:44;;;;;;;10.20;7.80;;;;;;;;;;5019840;28;20288;-56
2024/02/08 10:59:14;;;;;;;10.07;8.07;;;;;;;;;;5017765;28;20681;-55
2024/02/08 11:04:28;;;;;;;8.40;7.47;;;;;;;;;;5018448;28;20209;-55
2024/02/08 11:09:46;;;;;;;9.63;7.47;;;;;;;;;;5027273;28;20640;-55
2024/02/08 11:12:18;;;;;;;8.10;7.30;;;;;;;;;;5017719;28;20183;-55
2024/02/08 11:14:53;;;;;;;10.53;8.27;;;;;;;;;;5025088;28;20177;-55
2024/02/08 11:17:24;;;;;;;9.43;7.37;;;;;;;;;;5025274;28;20169;-56
2024/02/08 11:19:56;;;;;;;9.73;7.90;;;;;;;;;;5013413;28;20300;-55
2024/02/08 11:22:39;;;;;;;9.27;7.23;;;;;;;;;;5024360;28;20200;-55
2024/02/08 11:25:33;;;;;;;9.20;8.23;;;;;;;;;;5021494;28;20212;-55
2024/02/08 11:28:08;;;;;;;12.07;8.10;;;;;;;;;;5010973;28;20528;-55
2024/02/08 11:30:35;;;;;;;9.37;8.07;;;;;;;;;;5015826;28;20641;-55
2024/02/08 11:33:04;;;;;;;10.80;7.77;;;;;;;;;;5016417;28;20169;-55
2024/02/08 11:35:31;;;;;;;9.03;8.03;;;;;;;;;;5022976;28;20277;-55
2024/02/08 11:38:10;;;;;;;12.17;8.50;;;;;;;;;;5025728;28;20182;-55
2024/02/08 11:40:36;;;;;;;9.07;7.47;;;;;;;;;;5015277;28;20198;-55
2024/02/08 11:43:05;;;;;;;9.43;8.37;;;;;;;;;;5026832;28;20210;-55
2024/02/08 11:45:35;;;;;;;10.37;8.63;;;;;;;;;;5021013;28;20217;-54
2024/02/08 11:48:04;;;;;;;9.53;7.00;;;;;;;;;;5031224;28;20209;-55
2024/02/08 11:50:36;;;;;;;11.63;8.93;;;;;;;;;;5021497;28;20182;-54
2024/02/08 11:53:04;;;;;;;10.70;8.23;;;;;;;;;;5024124;28;20186;-54
2024/02/08 11:55:31;;;;;;;9.90;8.40;;;;;;;;;;5023793;28;20260;-54
2024/02/08 11:57:57;;;;;;;11.90;9.30;;;;;;;;;;5020427;28;20572;-54
2024/02/08 12:00:24;;;;;;;9.40;7.47;;;;;;;;;;5022660;28;20185;-55
2024/02/08 12:02:58;;;;;;;12.53;8.47;;;;;;;;;;5015927;28;20170;-55
2024/02/08 12:05:27;;;;;;;10.27;8.10;;;;;;;;;;5021052;28;20653;-53
2024/02/08 12:07:57;;;;;;;10.00;7.70;;;;;;;;;;5019610;28;20174;-51
2024/02/08 12:10:23;;;;;;;11.20;8.20;;;;;;;;;;5017658;28;20175;-51
2024/02/08 12:12:53;;;;;;;8.33;7.33;;;;;;;;;;5017546;28;20277;-51
2024/02/08 12:15:22;;;;;;;11.50;8.73;;;;;;;;;;5025144;28;20618;-51
2024/02/08 12:18:05;;;;;;;12.50;8.50;;;;;;;;;;5020511;28;20212;-52
2024/02/08 12:20:31;;;;;;;10.97;9.87;;;;;;;;;;5020106;28;20180;-52
2024/02/08 12:22:58;;;;;;;10.47;8.57;;;;;;;;;;5021551;28;20688;-52
2024/02/08 12:25:27;;;;;;;9.30;7.67;;;;;;;;;;5024233;28;20198;-51
2024/02/08 12:27:57;;;;;;;10.33;7.33;;;;;;;;;;5016097;28;20649;-51
2024/02/08 12:30:28;;;;;;;11.60;8.57;;;;;;;;;;5022900;28;20167;-50
2024/02/08 12:32:55;;;;;;;11.03;8.10;;;;;;;;;;5017442;28;20201;-52
2024/02/08 12:35:25;;;;;;;11.60;8.63;;;;;;;;;;5026459;28;20209;-52
2024/02/08 12:37:51;;;;;;;9.80;8.47;;;;;;;;;;5018523;28;20171;-52
2024/02/08 12:40:18;;;;;;;11.47;7.97;;;;;;;;;;5022790;28;20317;-51
2024/02/08 12:42:44;;;;;;;11.33;8.10;;;;;;;;;;5022600;28;20229;-50
2024/02/08 12:45:11;;;;;;;11.47;7.90;;;;;;;;;;5025765;28;20280;-50
2024/02/08 12:47:40;;;;;;;11.90;8.70;;;;;;;;;;5031306;28;20547;-50
2024/02/08 12:50:08;;;;;;;10.40;8.73;;;;;;;;;;5030497;28;20190;-52
2024/02/08 12:52:35;;;;;;;8.97;7.87;;;;;;;;;;5028730;28;20491;-50
2024/02/08 12:55:01;;;;;;;8.03;7.30;;;;;;;;;;5022357;28;20175;-52
2024/02/08 12:57:27;;;;;;;8.57;7.63;;;;;;;;;;5020959;28;20225;-51
2024/02/08 13:00:13;;;;;;;9.03;7.73;;;;;;;;;;5024312;28;20272;-52
2024/02/08 13:02:40;;;;;;;9.53;8.20;;;;;;;;;;5027918;28;20180;-53
2024/02/08 13:05:06;;;;;;;8.93;7.80;;;;;;;;;;5023522;28;20507;-53
2024/02/08 13:07:36;;;;;;;8.37;7.27;;;;;;;;;;5017415;28;20178;-52
2024/02/08 13:10:04;;;;;;;9.67;7.77;;;;;;;;;;5019620;28;20174;-52
2024/02/08 13:12:31;;;;;;;8.63;7.33;;;;;;;;;;5025772;28;20190;-53
2024/02/08 13:15:02;;;;;;;9.33;8.33;;;;;;;;;;5024166;28;20190;-51
2024/02/08 13:17:32;;;;;;;11.90;8.40;;;;;;;;;;5022654;28;20216;-54
2024/02/08 13:19:59;;;;;;;9.53;7.73;;;;;;;;;;5024278;28;20186;-54
2024/02/08 13:22:26;;;;;;;7.53;6.73;;;;;;;;;;5017232;28;20535;-54
2024/02/08 13:24:52;;;;;;;8.50;7.57;;;;;;;;;;5026241;28;20617;-54
2024/02/08 13:27:24;;;;;;;8.47;7.40;;;;;;;;;;5018316;28;20626;-54
2024/02/08 13:29:53;;;;;;;9.33;7.70;;;;;;;;;;5024935;28;20165;-54
2024/02/08 13:32:24;;;;;;;9.23;7.83;;;;;;;;;;5027139;28;20227;-54
2024/02/08 13:34:51;;;;;;;7.97;6.17;;;;;;;;;;5023351;28;20201;-54
2024/02/08 13:37:17;;;;;;;8.10;7.20;;;;;;;;;;5027336;28;20185;-54
2024/02/08 13:39:43;;;;;;;7.97;7.20;;;;;;;;;;5026946;28;20578;-54
2024/02/08 13:42:09;;;;;;;9.13;7.23;;;;;;;;;;5025362;28;20286;-54
2024/02/08 13:44:36;;;;;;;12.40;11.30;;;;;;;;;;5025252;28;20181;-54
2024/02/08 13:47:05;;;;;;;7.73;6.47;;;;;;;;;;5021734;28;20186;-54
2024/02/08 13:49:32;;;;;;;7.20;6.07;;;;;;;;;;5027866;28;20177;-54
2024/02/08 13:51:59;;;;;;;8.73;7.80;;;;;;;;;;5025867;28;20222;-54
2024/02/08 13:54:27;;;;;;;8.40;7.60;;;;;;;;;;5027425;28;20621;-53
2024/02/08 13:56:55;;;;;;;8.50;7.63;;;;;;;;;;5025201;28;20747;-54
2024/02/08 13:59:21;;;;;;;7.37;6.67;;;;;;;;;;5027681;28;20275;-54
2024/02/08 14:01:47;;;;;;;8.07;7.27;;;;;;;;;;5018715;28;20201;-54
2024/02/08 14:04:20;;;;;;;7.90;7.10;;;;;;;;;;5026502;28;20217;-55
2024/02/08 14:06:51;;;;;;;8.87;8.07;;;;;;;;;;5023482;28;20200;-54
2024/02/08 14:09:22;;;;;;;7.43;6.53;;;;;;;;;;5018808;28;20177;-54
2024/02/08 14:11:52;;;;;;;7.10;6.10;;;;;;;;;;5024221;28;20169;-55
2024/02/08 14:14:23;;;;;;;8.10;7.40;;;;;;;;;;5020390;28;20635;-55
2024/02/08 14:16:55;;;;;;;6.93;6.23;;;;;;;;;;5021101;28;20216;-55
2024/02/08 14:19:33;;;;;;;6.30;5.57;;;;;;;;;;5015170;28;20225;-54
2024/02/08 14:22:05;;;;;;;8.33;7.63;;;;;;;;;;5022089;28;20513;-54
2024/02/08 14:24:36;;;;;;;7.07;6.37;;;;;;;;;;5022376;28;20306;-54
2024/02/08 14:27:05;;;;;;;6.80;6.20;;;;;;;;;;5016176;28;20204;-55
2024/02/08 14:29:31;;;;;;;6.77;6.07;;;;;;;;;;5021904;28;20314;-55
2024/02/08 14:31:57;;;;;;;5.90;5.30;;;;;;;;;;5022455;28;20174;-55
2024/02/08 14:34:26;;;;;;;7.00;6.30;;;;;;;;;;5021300;28;20178;-55
2024/02/08 14:36:52;;;;;;;7.13;5.30;;;;;;;;;;5021693;28;20216;-55
2024/02/08 14:39:28;;;;;;;5.90;5.30;;;;;;;;;;5019298;28;20214;-56
2024/02/08 14:41:58;;;;;;;5.73;5.23;;;;;;;;;;5017376;28;20177;-55
2024/02/08 14:44:31;;;;;;;8.10;6.20;;;;;;;;;;5024110;28;20193;-55
2024/02/08 14:46:58;;;;;;;5.77;5.17;;;;;;;;;;5022264;28;20189;-55
2024/02/08 14:49:24;;;;;;;5.57;5.07;;;;;;;;;;5026701;28;20232;-55
2024/02/08 14:51:58;;;;;;;6.37;5.77;;;;;;;;;;5023789;28;20174;-55
2024/02/08 14:54:26;;;;;;;6.00;5.40;;;;;;;;;;5027156;28;20182;-55
2024/02/08 14:57:04;;;;;;;6.23;5.63;;;;;;;;;;5023646;28;20227;-55
2024/02/08 14:59:41;;;;;;;5.47;4.97;;;;;;;;;;5025137;28;20166;-55
2024/02/08 15:02:13;;;;;;;4.83;4.43;;;;;;;;;;5024508;28;20177;-55
2024/02/08 15:04:45;;;;;;;4.53;4.13;;;;;;;;;;5019274;28;20634;-55
2024/02/08 15:07:33;;;;;;;6.07;5.53;;;;;;;;;;5022633;28;20196;-55
2024/02/08 15:09:57;;;;;;;6.97;6.37;;;;;;;;;;5021907;28;20185;-55
2024/02/08 15:14:55;;;;;;;7.17;6.53;;;;;;;;;;5022764;28;20203;-55
2024/02/08 15:17:23;;;;;;;9.37;8.63;;;;;;;;;;5021032;28;20672;-55
2024/02/08 15:19:52;;;;;;;10.27;9.30;;;;;;;;;;5014266;28;20170;-55
2024/02/08 15:24:57;;;;;;;7.90;7.20;;;;;;;;;;5019009;28;20286;-55
2024/02/08 15:27:31;;;;;;;5.63;5.13;;;;;;;;;;5020863;28;20177;-55
2024/02/08 15:30:17;;;;;;;6.33;5.53;;;;;;;;;;5016550;28;20240;-55
2024/02/08 15:32:47;;;;;;;5.27;4.77;;;;;;;;;;5020669;28;20511;-55
2024/02/08 15:35:23;;;;;;;4.50;4.10;;;;;;;;;;5014296;28;20645;-55
2024/02/08 15:40:45;;;;;;;6.60;6.00;;;;;;;;;;5019711;28;20225;-55
2024/02/08 15:43:15;;;;;;;6.00;4.77;;;;;;;;;;5018355;28;20210;-55
2024/02/08 15:45:52;;;;;;;5.67;5.27;;;;;;;;;;5022925;28;20264;-55
2024/02/08 15:48:20;;;;;;;4.23;3.83;;;;;;;;;;5019726;28;20186;-55
2024/02/08 15:50:46;;;;;;;6.70;6.13;;;;;;;;;;5018253;28;20506;-55
2024/02/08 15:53:17;;;;;;;4.80;4.30;;;;;;;;;;5018682;28;20186;-58
2024/02/08 15:55:49;;;;;;;5.63;4.93;;;;;;;;;;5016955;28;20177;-55
2024/02/08 15:58:34;;;;;;;4.43;3.90;;;;;;;;;;5020501;28;20268;-55
2024/02/08 16:06:41;;;;;;;4.83;4.30;;;;;;;;;;5016932;28;20215;-55
2024/02/08 16:09:24;;;;;;;4.07;3.73;;;;;;;;;;5021018;28;20175;-55
2024/02/08 16:11:53;;;;;;;4.10;3.70;;;;;;;;;;5024626;28;20165;-55
2024/02/08 16:14:25;;;;;;;4.40;3.87;;;;;;;;;;5025156;28;20170;-55
2024/02/08 16:17:05;;;;;;;6.67;6.23;;;;;;;;;;5022306;28;20171;-55
2024/02/08 16:19:43;;;;;;;9.20;8.70;;;;;;;;;;5028991;28;20217;-55
2024/02/08 16:22:19;;;;;;;8.07;7.60;;;;;;;;;;5028026;28;20178;-55
2024/02/08 16:24:49;;;;;;;4.90;4.53;;;;;;;;;;5024684;28;20220;-55
2024/02/08 16:27:15;;;;;;;3.63;3.33;;;;;;;;;;5019418;28;20657;-55
2024/02/08 16:29:56;;;;;;;3.47;3.17;;;;;;;;;;5020489;28;20217;-55
2024/02/08 16:32:29;;;;;;;4.17;3.77;;;;;;;;;;5027402;28;20190;-55
2024/02/08 16:35:00;;;;;;;3.73;3.43;;;;;;;;;;5024971;28;20214;-55
2024/02/08 16:37:42;;;;;;;3.90;3.50;;;;;;;;;;5020076;28;20185;-55
2024/02/08 16:40:16;;;;;;;3.70;3.40;;;;;;;;;;5020988;28;20173;-55
2024/02/08 16:42:56;;;;;;;3.33;3.03;;;;;;;;;;5020605;28;20212;-55
2024/02/08 16:45:34;;;;;;;3.73;3.07;;;;;;;;;;5025004;28;20256;-55
2024/02/08 16:48:13;;;;;;;3.47;3.17;;;;;;;;;;5028403;28;20182;-59
2024/02/08 16:50:49;;;;;;;3.80;3.27;;;;;;;;;;5026904;28;20776;-61
2024/02/08 16:53:19;;;;;;;3.10;2.90;;;;;;;;;;5020632;28;20231;-59
2024/02/08 16:55:48;;;;;;;2.87;2.67;;;;;;;;;;5026337;28;20174;-60
2024/02/08 16:58:19;;;;;;;4.07;2.93;;;;;;;;;;5025788;28;20265;-61
2024/02/08 17:00:48;;;;;;;7.07;3.93;;;;;;;;;;5023542;28;20545;-61
2024/02/08 17:06:16;;;;;;;5.57;5.17;;;;;;;;;;5027684;28;20668;-61
2024/02/08 17:09:01;;;;;;;4.67;4.37;;;;;;;;;;5025073;28;20177;-60
2024/02/08 17:11:35;;;;;;;7.63;7.13;;;;;;;;;;5016355;28;20342;-59
2024/02/08 17:14:03;;;;;;;5.23;4.83;;;;;;;;;;5018210;28;20257;-61